logo
Search for airport 
image banner adimage banner adimage banner ad
image banner ad

VT44 - Perras Fld

Located in Morrisville, United States

ICAO - VT44, IATA -

Data provided by Airmate  

General information

Coordinates: N44°31'36" W72°34'53"
Elevation is 820 feet MSL.
Magnetic variation is -16° East
View others Airports in Vermont

Operational data

Special qualification required
Current time UTC:
Current local time:
Weather at : KMVL - Morrisville-Stowe State ( 3 km )
METAR: KMVL 131554Z AUTO 22012G20KT 10SM FEW038 09/01 A2938 RMK AO2 SLP954 T00940011
View NOTAMs / SUP AIP / TFR affecting this airport [VIEW]
Communications frequencies: [VIEW]

Runways:

RWY identifierQFULength (ft)Width (ft)SurfaceLDA (ft)
16220060GRASS
34220060GRASS

Airport contact information

Address: Morrisville United States

Satellite view of VT44